This is the latest recevied weather packets stored in our database for station/object M0SDM. If no packets are shown the sender has not sent any weather packets the latest 10 day(s).
| Time | Temp. | Humidity | Pressure | Rain* | Wind** | Luminosity | Snow |
|---|---|---|---|---|---|---|---|
| 1777741821 | 18.33° C | 57% | 1009.7 hPa | 0 mm | - | - | - |
| 1777740921 | 18.33° C | 57% | 1009.9 hPa | 0 mm | - | - | - |
| 1777740021 | 18.89° C | 56% | 1010.2 hPa | 0 mm | - | - | - |
| 1777739121 | 18.89° C | 54% | 1010.3 hPa | 0 mm | - | - | - |
| 1777738221 | 18.89° C | 56% | 1010.6 hPa | 0 mm | - | - | - |
| 1777737321 | 18.89° C | 56% | 1010.7 hPa | 0 mm | - | - | - |
| 1777736421 | 19.44° C | 54% | 1010.4 hPa | 0 mm | - | - | - |
| 1777735521 | 18.89° C | 55% | 1010.4 hPa | 0 mm | - | - | - |
| 1777734621 | 19.44° C | 53% | 1010.8 hPa | 0 mm | - | - | - |
| 1777733721 | 19.44° C | 54% | 1010.7 hPa | 0 mm | - | - | - |
| 1777732821 | 19.44° C | 50% | 1011 hPa | 0 mm | - | - | - |
| 1777731921 | 20° C | 49% | 1011.2 hPa | 0 mm | - | - | - |
| 1777731021 | 20.56° C | 49% | 1011.4 hPa | 0 mm | - | - | - |
| 1777730121 | 20° C | 51% | 1011.6 hPa | 0 mm | - | - | - |
| 1777729221 | 19.44° C | 53% | 1011.9 hPa | 0 mm | - | - | - |
| 1777728321 | 18.89° C | 55% | 1012.1 hPa | 0 mm | - | - | - |
| 1777727421 | 19.44° C | 55% | 1012.2 hPa | 0 mm | - | - | - |
| 1777726521 | 18.89° C | 57% | 1012.3 hPa | 0 mm | - | - | - |
| 1777725621 | 18.89° C | 58% | 1012.6 hPa | 0 mm | - | - | - |
| 1777724721 | 18.33° C | 58% | 1012.9 hPa | 0 mm | - | - | - |
| 1777723821 | 18.33° C | 61% | 1013.5 hPa | 0 mm | - | - | - |
| 1777722921 | 17.78° C | 62% | 1013.8 hPa | 0 mm | - | - | - |
| 1777722021 | 17.78° C | 63% | 1014.2 hPa | 0 mm | - | - | - |
| 1777721121 | 17.22° C | 66% | 1014.2 hPa | 0 mm | - | - | - |
| 1777720221 | 17.22° C | 66% | 1014.3 hPa | 0 mm | - | - | - |
* Rain latest hour (hover to see other rain measurements)
** Current wind speed in m/s (hover to see current wind gust speed)